Khatanga, Russia
Current Conditions -  °F | °C
As of 1:30 PM on Wednesday 26 Nov 2014 (Local Time) from UEEE Reporting Station
Clear Clear  
Wind Chill: -18°   Ceiling: Unl
Heat Index: -4°   Visibility: 6mi
Dew Point: -8°   Wind: 7mph
Humidity: 85%   Direction: 310°NW
Pressure: 29.85"   Gusts: NA
Location:  71.97°N, 102.5°E
Report Text: UEEE 260630Z 31003MPS CAVOK M20/M22 Q1011 NOSIG RMK QFE75023490150
Loading
Personal Weather Stations






























Interactive Weather Map New forecast layout! Learn more

10-Day Weather Forecast

Advertisements
Track Severe Weather on mobile